Terminal Aerodrome Forecast
Issued by NWS Omaha/Valley, NE

Home | Current Version | Previous Version | Text Only | Print | Product List | Glossary On
Versions: 1 2 3 4 5 6 7 8 9 10 11 12 13 14 15 16 17
000
FTUS43 KOAX 271153 AAA
TAFLNK
TAF AMD
KLNK 271153Z 2712/2812 15007KT P6SM SCT003
      TEMPO 2712/2713 3SM BR
     FM271600 16016G23KT P6SM SCT025
     FM280500 17017KT P6SM VCTS OVC090CB
      TEMPO 2805/2807 3SM TSRA OVC050CB
     FM280800 19011G22KT P6SM OVC150=

USA.gov is the U.S. government's official web portal to all federal, state and local government web resources and services.